Time;durP1;ratioP1;P1;durP2;ratioP2;P2;SDS_P1;SDS_P2;PMS_P1;PMS_P2;Temp;Humidity;BMP_temperature;BMP_pressure;BME280_temperature;BME280_humidity;BME280_pressure;Samples;Min_cycle;Max_cycle;Signal;HPM_P1;HPM_P2
2020/12/17 00:00:17;;;;;;;44.90;22.75;;;4.20;99.90;;;;;;5034050;28;20476;-68
2020/12/17 00:02:43;;;;;;;31.35;22.00;;;4.20;99.90;;;;;;5033590;28;20449;-69
2020/12/17 00:05:09;;;;;;;29.33;20.80;;;4.20;99.90;;;;;;5034298;28;20052;-69
2020/12/17 00:07:37;;;;;;;39.58;21.90;;;4.10;99.90;;;;;;5032908;28;20017;-69
2020/12/17 00:10:04;;;;;;;27.75;21.67;;;4.10;99.90;;;;;;5034105;28;20033;-70
2020/12/17 00:12:36;;;;;;;30.88;22.55;;;4.10;99.90;;;;;;5042997;28;20028;-67
2020/12/17 00:15:05;;;;;;;47.78;22.55;;;4.10;99.90;;;;;;5053735;28;20037;-67
2020/12/17 00:17:31;;;;;;;32.35;21.48;;;4.00;99.90;;;;;;5053881;28;20072;-70
2020/12/17 00:19:57;;;;;;;26.48;19.52;;;4.10;99.90;;;;;;5053532;28;20029;-69
2020/12/17 00:22:22;;;;;;;119.38;24.70;;;4.10;99.90;;;;;;5053621;28;20028;-69
2020/12/17 00:24:48;;;;;;;125.03;22.52;;;4.10;99.90;;;;;;5052644;28;20032;-69
2020/12/17 00:27:14;;;;;;;71.97;23.35;;;4.10;99.90;;;;;;5053529;28;20029;-69
2020/12/17 00:29:39;;;;;;;69.63;22.02;;;3.90;99.90;;;;;;5053335;28;20035;-69
2020/12/17 00:32:05;;;;;;;31.60;19.77;;;3.90;99.90;;;;;;5053566;28;20110;-69
2020/12/17 00:34:31;;;;;;;36.10;21.75;;;3.90;99.90;;;;;;5052767;28;20508;-69
2020/12/17 00:36:56;;;;;;;25.35;19.75;;;3.90;99.90;;;;;;5053530;28;20032;-69
2020/12/17 00:39:23;;;;;;;51.50;21.13;;;3.80;99.90;;;;;;5052731;28;20036;-69
2020/12/17 00:41:49;;;;;;;60.83;21.90;;;3.90;99.90;;;;;;5053195;28;20467;-69
2020/12/17 00:44:15;;;;;;;29.88;20.80;;;3.80;99.90;;;;;;5052518;28;20032;-69
2020/12/17 00:46:40;;;;;;;60.72;22.58;;;3.70;99.90;;;;;;5053283;28;20048;-68
2020/12/17 00:49:06;;;;;;;26.23;19.33;;;3.70;99.90;;;;;;5053036;28;20031;-69
2020/12/17 00:51:32;;;;;;;30.02;17.95;;;3.60;99.90;;;;;;5053079;28;20021;-69
2020/12/17 00:53:57;;;;;;;70.75;21.70;;;3.60;99.90;;;;;;5052338;28;20032;-69
2020/12/17 00:56:23;;;;;;;28.48;18.85;;;3.50;99.90;;;;;;5052702;28;20025;-69
2020/12/17 00:58:48;;;;;;;24.48;18.67;;;3.50;99.90;;;;;;5051664;28;20036;-69
2020/12/17 01:01:14;;;;;;;44.03;20.00;;;3.50;99.90;;;;;;5051564;28;20056;-69
2020/12/17 01:03:40;;;;;;;25.45;18.63;;;3.30;99.90;;;;;;5052095;28;20036;-69
2020/12/17 01:06:09;;;;;;;37.90;20.80;;;3.30;99.90;;;;;;5052897;28;20029;-69
2020/12/17 01:08:35;;;;;;;30.70;21.63;;;3.40;99.90;;;;;;5052677;28;20391;-69
2020/12/17 01:11:02;;;;;;;35.55;21.77;;;3.40;99.90;;;;;;5051293;28;20025;-69
2020/12/17 01:13:28;;;;;;;61.08;23.52;;;3.40;99.90;;;;;;5051930;28;20394;-69
2020/12/17 01:15:53;;;;;;;106.15;23.95;;;3.50;99.90;;;;;;5052417;28;20040;-70
2020/12/17 01:18:19;;;;;;;37.17;20.65;;;3.40;99.90;;;;;;5051592;28;20025;-69
2020/12/17 01:20:45;;;;;;;81.47;23.42;;;3.40;99.90;;;;;;5051906;28;20442;-68
2020/12/17 01:23:10;;;;;;;58.15;22.75;;;3.40;99.90;;;;;;5051679;28;20533;-69
2020/12/17 01:25:36;;;;;;;82.20;22.90;;;3.40;99.90;;;;;;5052168;28;20025;-70
2020/12/17 01:28:01;;;;;;;123.88;24.35;;;3.40;99.90;;;;;;5052332;28;20029;-70
2020/12/17 01:30:27;;;;;;;24.73;18.67;;;3.40;99.90;;;;;;5052338;28;20044;-69
2020/12/17 01:32:53;;;;;;;28.00;20.08;;;3.30;99.90;;;;;;5051777;28;20070;-69
2020/12/17 01:35:20;;;;;;;30.10;18.88;;;3.20;99.90;;;;;;5050973;28;20033;-69
2020/12/17 01:37:46;;;;;;;33.85;18.35;;;3.30;99.90;;;;;;5052119;28;20503;-68
2020/12/17 01:40:12;;;;;;;26.67;19.17;;;3.20;99.90;;;;;;5051865;28;20025;-69
2020/12/17 01:42:37;;;;;;;123.20;28.15;;;3.20;99.90;;;;;;5050563;28;20391;-70
2020/12/17 01:45:04;;;;;;;37.08;19.45;;;3.30;99.90;;;;;;5052007;28;20028;-69
2020/12/17 01:47:37;;;;;;;44.67;21.02;;;3.20;99.90;;;;;;5052022;28;20483;-69
2020/12/17 01:50:07;;;;;;;30.65;19.00;;;3.20;99.90;;;;;;5052051;28;20029;-69
2020/12/17 01:52:33;;;;;;;34.75;19.10;;;3.20;99.90;;;;;;5051833;28;20025;-69
2020/12/17 01:55:01;;;;;;;40.15;19.48;;;3.20;99.90;;;;;;5051161;28;20029;-69
2020/12/17 01:57:35;;;;;;;22.90;17.00;;;3.10;99.90;;;;;;5051982;28;20028;-69
2020/12/17 02:00:07;;;;;;;61.65;20.40;;;3.10;99.90;;;;;;5051761;28;20029;-69
2020/12/17 02:02:33;;;;;;;33.95;19.50;;;3.20;99.90;;;;;;5051785;28;20025;-69
2020/12/17 02:05:00;;;;;;;24.92;18.10;;;3.10;99.90;;;;;;5051052;28;20029;-69
2020/12/17 02:07:26;;;;;;;40.00;18.63;;;3.00;99.90;;;;;;5051779;28;20025;-70
2020/12/17 02:09:53;;;;;;;29.80;19.08;;;3.10;99.90;;;;;;5051369;28;20462;-68
2020/12/17 02:12:19;;;;;;;61.05;19.58;;;3.00;99.90;;;;;;5051309;28;20035;-67
2020/12/17 02:14:45;;;;;;;103.68;22.05;;;3.00;99.90;;;;;;5049726;28;20384;-70
2020/12/17 02:17:10;;;;;;;55.67;19.80;;;2.90;99.90;;;;;;5051653;28;20021;-67
2020/12/17 02:19:36;;;;;;;20.77;16.20;;;2.90;99.90;;;;;;5051188;28;20048;-70
2020/12/17 02:22:02;;;;;;;23.42;16.77;;;2.90;99.90;;;;;;5051560;28;20067;-69
2020/12/17 02:24:27;;;;;;;41.58;17.00;;;2.90;99.90;;;;;;5050806;28;20017;-69
2020/12/17 02:26:53;;;;;;;21.83;15.75;;;2.80;99.90;;;;;;5049999;28;20059;-69
2020/12/17 02:29:19;;;;;;;20.85;14.50;;;2.80;99.90;;;;;;5051345;28;20032;-69
2020/12/17 02:31:45;;;;;;;44.50;16.80;;;2.70;99.90;;;;;;5051480;28;20394;-69
2020/12/17 02:34:11;;;;;;;82.45;21.73;;;2.70;99.90;;;;;;5050474;28;20021;-69
2020/12/17 02:36:37;;;;;;;21.50;16.40;;;2.70;99.90;;;;;;5051448;28;20029;-70
2020/12/17 02:39:03;;;;;;;19.48;15.60;;;2.70;99.90;;;;;;5051227;28;20033;-70
2020/12/17 02:41:29;;;;;;;23.10;16.75;;;2.70;99.90;;;;;;5051100;28;20073;-70
2020/12/17 02:43:55;;;;;;;68.88;19.80;;;2.70;99.90;;;;;;5050620;28;20057;-69
2020/12/17 02:46:21;;;;;;;69.40;18.92;;;2.60;99.90;;;;;;5051290;28;20029;-69
2020/12/17 02:48:53;;;;;;;125.60;23.73;;;2.70;99.90;;;;;;5051119;28;20017;-69
2020/12/17 02:51:20;;;;;;;45.78;18.98;;;2.80;99.90;;;;;;5051173;28;20113;-67
2020/12/17 02:53:46;;;;;;;41.42;17.58;;;2.70;99.90;;;;;;5050611;28;20032;-69
2020/12/17 02:56:15;;;;;;;51.80;15.05;;;2.70;99.90;;;;;;5050908;28;20391;-70
2020/12/17 02:58:41;;;;;;;41.35;18.42;;;2.50;99.90;;;;;;5051255;28;20036;-68
2020/12/17 03:01:07;;;;;;;61.03;19.73;;;2.40;99.90;;;;;;5050940;28;20103;-68
2020/12/17 03:03:33;;;;;;;44.22;18.48;;;2.50;99.90;;;;;;5050485;28;20029;-68
2020/12/17 03:05:58;;;;;;;25.25;16.23;;;2.50;99.90;;;;;;5051035;28;20510;-68
2020/12/17 03:08:26;;;;;;;33.72;16.63;;;2.40;99.90;;;;;;5050713;28;20483;-68
2020/12/17 03:10:53;;;;;;;26.95;17.02;;;2.30;99.90;;;;;;5050709;28;20114;-68
2020/12/17 03:13:20;;;;;;;24.48;16.70;;;2.30;99.90;;;;;;5050297;28;20498;-68
2020/12/17 03:15:45;;;;;;;45.08;17.58;;;2.30;99.90;;;;;;5050862;28;20052;-68
2020/12/17 03:18:11;;;;;;;21.38;16.00;;;2.40;99.90;;;;;;5050878;28;20741;-69
2020/12/17 03:20:37;;;;;;;17.83;13.63;;;2.30;99.90;;;;;;5050927;28;20040;-68
2020/12/17 03:23:02;;;;;;;20.23;14.02;;;2.20;99.90;;;;;;5050223;28;20031;-68
2020/12/17 03:25:28;;;;;;;23.17;13.35;;;2.10;99.90;;;;;;5052183;28;20029;-68
2020/12/17 03:27:53;;;;;;;16.50;12.25;;;2.10;99.90;;;;;;5054767;28;20489;-68
2020/12/17 03:30:19;;;;;;;18.58;13.38;;;2.00;99.90;;;;;;5054458;28;20021;-68
2020/12/17 03:32:45;;;;;;;16.50;13.02;;;2.00;99.90;;;;;;5053989;28;20471;-68
2020/12/17 03:35:10;;;;;;;47.28;16.95;;;2.00;99.90;;;;;;5054632;28;20017;-68
2020/12/17 03:37:36;;;;;;;25.58;15.65;;;2.00;99.90;;;;;;5054622;28;20391;-69
2020/12/17 03:40:03;;;;;;;22.73;16.13;;;2.00;99.90;;;;;;5052902;28;20049;-68
2020/12/17 03:42:29;;;;;;;25.45;14.98;;;2.00;99.90;;;;;;5054338;28;20112;-68
2020/12/17 03:44:54;;;;;;;21.65;16.00;;;2.10;99.90;;;;;;5053590;28;20103;-68
2020/12/17 03:47:20;;;;;;;32.75;17.65;;;2.10;99.90;;;;;;5054426;28;20029;-67
2020/12/17 03:49:45;;;;;;;41.30;18.20;;;2.10;99.90;;;;;;5054177;28;20025;-67
2020/12/17 03:52:11;;;;;;;34.90;17.13;;;2.10;99.90;;;;;;5054304;28;20017;-68
2020/12/17 03:54:37;;;;;;;29.10;17.63;;;2.20;99.90;;;;;;5071324;22;20040;-70
2020/12/17 03:57:03;;;;;;;35.65;17.75;;;2.00;99.90;;;;;;5068828;28;20439;-71
2020/12/17 03:59:28;;;;;;;26.67;16.52;;;2.10;99.90;;;;;;5076906;28;20021;-72
2020/12/17 04:01:54;;;;;;;47.28;17.77;;;2.00;99.90;;;;;;5076948;28;20032;-71
2020/12/17 04:04:20;;;;;;;40.65;17.48;;;2.10;99.90;;;;;;5076308;28;20409;-72
2020/12/17 04:06:45;;;;;;;96.97;17.52;;;2.00;99.90;;;;;;5077312;28;20082;-72
2020/12/17 04:09:12;;;;;;;20.05;15.02;;;1.90;99.90;;;;;;5077152;28;20025;-71
2020/12/17 04:11:38;;;;;;;92.93;18.67;;;1.80;99.90;;;;;;5077231;28;20043;-72
2020/12/17 04:14:03;;;;;;;18.20;14.10;;;1.80;99.90;;;;;;5075346;28;20020;-71
2020/12/17 04:16:29;;;;;;;27.02;14.63;;;1.80;99.90;;;;;;5075580;28;20471;-71
2020/12/17 04:18:55;;;;;;;34.35;15.65;;;1.70;99.90;;;;;;5075777;28;20028;-72
2020/12/17 04:21:20;;;;;;;43.08;18.25;;;1.60;99.90;;;;;;5075773;28;20048;-72
2020/12/17 04:23:46;;;;;;;29.80;15.70;;;1.70;99.90;;;;;;5075243;28;20029;-70
2020/12/17 04:26:13;;;;;;;27.88;14.40;;;1.80;99.90;;;;;;5057721;28;20509;-70
2020/12/17 04:28:39;;;;;;;20.80;14.38;;;1.80;99.90;;;;;;5057049;28;20478;-71
2020/12/17 04:31:05;;;;;;;42.72;16.58;;;1.80;99.90;;;;;;5054868;28;20029;-71
2020/12/17 04:33:31;;;;;;;41.83;17.27;;;1.80;99.90;;;;;;5056769;28;20021;-72
2020/12/17 04:35:57;;;;;;;20.15;15.05;;;1.80;99.90;;;;;;5057293;28;20154;-73
2020/12/17 04:38:22;;;;;;;24.88;15.57;;;1.80;99.90;;;;;;5056477;28;20028;-73
2020/12/17 04:40:48;;;;;;;29.45;14.73;;;1.80;99.90;;;;;;5055375;28;20051;-72
2020/12/17 04:43:13;;;;;;;21.73;14.10;;;1.70;99.90;;;;;;5052991;28;20044;-72
2020/12/17 04:45:39;;;;;;;34.60;15.70;;;1.70;99.90;;;;;;5053983;28;20029;-72
2020/12/17 04:48:06;;;;;;;19.95;14.63;;;1.70;99.90;;;;;;5054224;28;20039;-72
2020/12/17 04:50:33;;;;;;;19.88;15.10;;;1.70;99.90;;;;;;5053993;28;20100;-70
2020/12/17 04:53:01;;;;;;;46.05;16.58;;;1.70;99.90;;;;;;5053233;28;20271;-72
2020/12/17 04:55:29;;;;;;;22.50;15.75;;;1.70;99.90;;;;;;5046055;28;20021;-75
2020/12/17 04:57:58;;;;;;;20.67;15.27;;;1.80;99.90;;;;;;5053473;28;20053;-75
2020/12/17 05:00:24;;;;;;;20.90;14.75;;;1.80;99.90;;;;;;5053985;28;20029;-76
2020/12/17 05:02:53;;;;;;;27.50;15.40;;;1.80;99.90;;;;;;5055944;28;20562;-76
2020/12/17 05:05:19;;;;;;;18.42;15.00;;;1.80;99.90;;;;;;5056257;28;20025;-72
2020/12/17 05:07:45;;;;;;;75.85;19.50;;;1.80;99.90;;;;;;5054928;28;20395;-76
2020/12/17 05:10:10;;;;;;;254.02;24.90;;;1.90;99.90;;;;;;5054647;28;20067;-75
2020/12/17 05:12:36;;;;;;;284.88;31.55;;;1.90;99.90;;;;;;5055895;28;20025;-75
2020/12/17 05:15:02;;;;;;;40.00;17.60;;;1.90;99.90;;;;;;5055748;28;20047;-77
2020/12/17 05:17:28;;;;;;;36.08;17.70;;;1.90;99.90;;;;;;5051767;28;20032;-76
2020/12/17 05:19:54;;;;;;;24.60;16.80;;;1.80;99.90;;;;;;5054472;28;20100;-75
2020/12/17 05:22:20;;;;;;;50.72;20.80;;;1.80;99.90;;;;;;5053999;28;20029;-76
2020/12/17 05:24:47;;;;;;;35.05;18.92;;;1.80;99.90;;;;;;5051548;28;20025;-75
2020/12/17 05:27:13;;;;;;;35.35;17.77;;;1.80;99.90;;;;;;5052400;28;20793;-76
2020/12/17 05:29:40;;;;;;;26.13;16.08;;;1.80;99.90;;;;;;5053079;28;20040;-76
2020/12/17 05:32:10;;;;;;;21.10;15.68;;;1.70;99.90;;;;;;5052826;28;20013;-74
2020/12/17 05:34:37;;;;;;;18.55;14.65;;;1.60;99.90;;;;;;5052825;28;20021;-75
2020/12/17 05:37:06;;;;;;;51.70;17.05;;;1.50;99.90;;;;;;5054250;28;20063;-76
2020/12/17 05:39:32;;;;;;;21.98;13.57;;;1.50;99.90;;;;;;5055092;28;20116;-73
2020/12/17 05:41:58;;;;;;;22.88;15.32;;;1.50;99.90;;;;;;5056043;28;20033;-73
2020/12/17 05:44:29;;;;;;;71.00;21.88;;;1.40;99.90;;;;;;5057005;28;20085;-76
2020/12/17 05:46:56;;;;;;;39.25;17.42;;;1.50;99.90;;;;;;5055263;28;20017;-75
2020/12/17 05:49:28;;;;;;;24.80;16.42;;;1.60;99.90;;;;;;5053478;28;20163;-75
2020/12/17 05:52:19;;;;;;;56.72;22.73;;;1.50;99.90;;;;;;5052273;28;20028;-72
2020/12/17 05:54:53;;;;;;;28.55;17.50;;;1.50;99.90;;;;;;5051128;28;20091;-73
2020/12/17 05:57:20;;;;;;;63.60;21.70;;;1.50;99.90;;;;;;5051200;28;20378;-72
2020/12/17 06:00:00;;;;;;;61.35;22.63;;;1.50;99.90;;;;;;5052604;28;20040;-74
2020/12/17 06:02:28;;;;;;;55.28;24.90;;;1.50;99.90;;;;;;5052371;28;20096;-72
2020/12/17 06:05:03;;;;;;;27.98;19.88;;;1.60;99.90;;;;;;5053453;28;20536;-75
2020/12/17 06:07:33;;;;;;;33.88;20.88;;;1.50;99.90;;;;;;5051956;28;20025;-73
2020/12/17 06:10:06;;;;;;;35.33;21.70;;;1.50;99.90;;;;;;5053212;28;20100;-73
2020/12/17 06:12:34;;;;;;;37.63;20.65;;;1.40;99.90;;;;;;5057266;28;20475;-72
2020/12/17 06:15:05;;;;;;;27.73;18.83;;;1.30;99.90;;;;;;5052691;28;20021;-73
2020/12/17 06:17:38;;;;;;;35.90;21.58;;;1.40;99.90;;;;;;5053302;28;20025;-69
2020/12/17 06:20:07;;;;;;;29.40;19.42;;;1.50;99.90;;;;;;5051998;28;20040;-69
2020/12/17 06:22:33;;;;;;;27.85;18.80;;;1.50;99.90;;;;;;5053256;28;20033;-70
2020/12/17 06:25:00;;;;;;;74.57;23.10;;;1.50;99.90;;;;;;5052325;28;20364;-70
2020/12/17 06:27:31;;;;;;;50.05;19.25;;;1.60;99.90;;;;;;5052619;28;20538;-69
2020/12/17 06:30:08;;;;;;;31.98;19.25;;;1.40;99.90;;;;;;5052285;28;20063;-73
2020/12/17 06:32:35;;;;;;;149.88;23.23;;;1.30;99.90;;;;;;5051468;28;20025;-73
2020/12/17 06:35:13;;;;;;;37.72;20.70;;;1.20;99.90;;;;;;5051297;28;20040;-69
2020/12/17 06:37:39;;;;;;;25.83;17.48;;;1.20;99.90;;;;;;5052691;28;20036;-68
2020/12/17 06:40:05;;;;;;;37.40;22.25;;;1.00;99.90;;;;;;5052384;28;20103;-72
2020/12/17 06:42:32;;;;;;;32.78;18.13;;;1.00;99.90;;;;;;5052196;28;20024;-70
2020/12/17 06:44:58;;;;;;;33.22;20.30;;;0.90;99.90;;;;;;5052071;28;20025;-73
2020/12/17 06:47:28;;;;;;;35.60;21.40;;;1.00;99.90;;;;;;5051555;28;20075;-72
2020/12/17 06:49:54;;;;;;;34.65;20.35;;;1.00;99.90;;;;;;5052546;28;20056;-69
2020/12/17 06:52:20;;;;;;;28.33;19.45;;;1.00;99.90;;;;;;5051019;28;20021;-72
2020/12/17 06:54:46;;;;;;;32.85;20.60;;;1.00;99.90;;;;;;5051283;28;20040;-71
2020/12/17 06:57:18;;;;;;;35.25;22.15;;;1.00;99.90;;;;;;5051166;28;20482;-70
2020/12/17 07:00:03;;;;;;;36.35;22.58;;;1.00;99.90;;;;;;5053618;28;20471;-72
2020/12/17 07:02:40;;;;;;;36.70;22.25;;;1.10;99.90;;;;;;5056582;28;20479;-72
2020/12/17 07:05:06;;;;;;;38.80;23.65;;;1.20;99.90;;;;;;5055838;28;20021;-72
2020/12/17 07:07:43;;;;;;;42.65;25.08;;;1.30;99.90;;;;;;5056149;28;20383;-72
2020/12/17 07:10:25;;;;;;;39.75;24.42;;;1.40;99.90;;;;;;5055705;28;20016;-71
2020/12/17 07:12:50;;;;;;;41.95;25.15;;;1.50;99.90;;;;;;5054467;28;20095;-71
2020/12/17 07:15:31;;;;;;;39.33;24.33;;;1.60;99.90;;;;;;5055166;28;20055;-71
2020/12/17 07:18:18;;;;;;;38.42;24.00;;;1.60;99.90;;;;;;5044730;28;20410;-74
2020/12/17 07:20:44;;;;;;;35.58;24.48;;;1.70;99.90;;;;;;5055999;28;20024;-72
2020/12/17 07:23:10;;;;;;;31.70;21.27;;;1.80;99.90;;;;;;5043043;28;20021;-71
2020/12/17 07:25:39;;;;;;;31.73;21.52;;;1.70;99.90;;;;;;5035525;28;20033;-71
2020/12/17 07:28:05;;;;;;;34.33;21.95;;;1.60;99.90;;;;;;5036121;28;20025;-71
2020/12/17 07:30:31;;;;;;;34.95;22.20;;;1.70;99.90;;;;;;5035821;28;20064;-72
2020/12/17 07:32:57;;;;;;;33.35;22.73;;;1.60;99.90;;;;;;5035629;28;20053;-72
2020/12/17 07:35:26;;;;;;;36.47;23.40;;;1.70;99.90;;;;;;5035861;28;20049;-72
2020/12/17 07:37:58;;;;;;;31.98;22.63;;;1.70;99.90;;;;;;5036529;28;20072;-72
2020/12/17 07:40:43;;;;;;;33.78;23.20;;;1.80;99.90;;;;;;5036221;28;20099;-72
2020/12/17 07:43:13;;;;;;;31.83;21.15;;;2.00;99.90;;;;;;5034409;28;20401;-71
2020/12/17 07:45:52;;;;;;;32.65;21.20;;;2.10;99.90;;;;;;5035581;28;20022;-72
2020/12/17 07:48:54;;;;;;;27.63;19.92;;;2.20;99.90;;;;;;5036082;28;20033;-71
2020/12/17 07:51:19;;;;;;;26.30;18.90;;;2.50;99.90;;;;;;5035110;28;20029;-72
2020/12/17 07:53:47;;;;;;;22.65;16.48;;;3.00;99.90;;;;;;5034670;28;20040;-71
2020/12/17 07:56:13;;;;;;;25.75;15.40;;;3.40;99.90;;;;;;5035315;28;20035;-71
2020/12/17 07:58:40;;;;;;;17.40;14.05;;;4.30;99.90;;;;;;5035195;28;20030;-71
2020/12/17 08:01:07;;;;;;;21.85;13.95;;;5.20;99.90;;;;;;5037037;28;20104;-72
2020/12/17 08:03:49;;;;;;;16.67;12.73;;;6.00;99.90;;;;;;5036403;28;20025;-71
2020/12/17 08:06:17;;;;;;;14.00;11.52;;;6.80;99.90;;;;;;5035666;28;20504;-71
2020/12/17 08:08:43;;;;;;;14.18;11.60;;;6.90;99.90;;;;;;5035628;28;20396;-73
2020/12/17 08:11:10;;;;;;;16.52;12.82;;;7.20;99.90;;;;;;5034973;28;20029;-71
2020/12/17 08:13:37;;;;;;;15.23;11.35;;;7.60;99.90;;;;;;5036457;28;20021;-71
2020/12/17 08:16:06;;;;;;;14.52;11.65;;;7.30;99.90;;;;;;5036702;28;20029;-71
2020/12/17 08:18:36;;;;;;;16.27;12.48;;;6.60;99.90;;;;;;5048234;28;20017;-71
2020/12/17 08:21:09;;;;;;;14.80;11.52;;;6.10;99.90;;;;;;5036971;28;20021;-71
2020/12/17 08:23:37;;;;;;;15.82;11.73;;;5.40;99.90;;;;;;5037130;28;20032;-71
2020/12/17 08:26:05;;;;;;;17.77;13.25;;;5.20;99.90;;;;;;5037056;28;20040;-71
2020/12/17 08:28:36;;;;;;;17.98;12.57;;;4.80;99.90;;;;;;5037225;28;20036;-72
2020/12/17 08:31:06;;;;;;;17.85;12.77;;;4.60;99.90;;;;;;5036719;28;20061;-72
2020/12/17 08:33:34;;;;;;;18.02;13.05;;;4.50;99.90;;;;;;5035196;28;20028;-71
2020/12/17 08:36:04;;;;;;;15.90;11.88;;;4.50;99.90;;;;;;5035443;28;20022;-71
2020/12/17 08:38:30;;;;;;;20.02;13.25;;;4.40;99.90;;;;;;5036735;28;20025;-71
2020/12/17 08:40:57;;;;;;;18.75;12.93;;;4.40;99.90;;;;;;5036106;28;20083;-71
2020/12/17 08:43:26;;;;;;;18.20;14.30;;;4.20;99.90;;;;;;5035416;28;20458;-71
2020/12/17 08:45:54;;;;;;;17.00;13.27;;;4.30;99.90;;;;;;5034841;28;20029;-72
2020/12/17 08:48:22;;;;;;;20.92;13.68;;;4.30;99.90;;;;;;5035102;28;20587;-72
2020/12/17 08:50:49;;;;;;;18.15;13.40;;;4.30;99.90;;;;;;5036296;28;20025;-72
2020/12/17 08:53:22;;;;;;;15.98;12.05;;;4.60;99.90;;;;;;5035408;28;20040;-72
2020/12/17 08:56:10;;;;;;;16.50;12.10;;;4.60;99.90;;;;;;5034762;28;20128;-73
2020/12/17 08:58:54;;;;;;;20.48;13.00;;;4.70;99.90;;;;;;5035152;28;20029;-71
2020/12/17 09:01:31;;;;;;;15.65;11.48;;;4.80;99.90;;;;;;5035718;28;20522;-71
2020/12/17 09:03:57;;;;;;;14.38;11.45;;;4.80;99.90;;;;;;5034650;28;20148;-71
2020/12/17 09:06:26;;;;;;;17.67;11.38;;;4.80;99.90;;;;;;5035743;28;20025;-71
2020/12/17 09:08:52;;;;;;;17.02;11.77;;;4.80;99.90;;;;;;5036057;28;20025;-72
2020/12/17 09:11:36;;;;;;;17.17;11.90;;;4.80;99.90;;;;;;5036521;28;20029;-71
2020/12/17 09:14:04;;;;;;;18.75;12.88;;;5.00;99.90;;;;;;5037034;28;20018;-72
2020/12/17 09:16:31;;;;;;;15.00;11.77;;;4.90;99.90;;;;;;5036303;28;20100;-71
2020/12/17 09:18:58;;;;;;;16.63;11.77;;;4.90;99.90;;;;;;5040986;28;20024;-72
2020/12/17 09:21:24;;;;;;;18.10;12.52;;;5.00;99.90;;;;;;5055703;28;20033;-71
2020/12/17 09:23:54;;;;;;;16.02;11.68;;;4.90;99.90;;;;;;5052716;28;20091;-73
2020/12/17 09:26:20;;;;;;;15.65;11.60;;;5.00;99.90;;;;;;5054084;28;20108;-72
2020/12/17 09:28:50;;;;;;;14.15;11.65;;;5.00;99.90;;;;;;5055149;28;20055;-72
2020/12/17 09:31:35;;;;;;;16.92;12.13;;;5.00;99.90;;;;;;5054269;28;20498;-72
2020/12/17 09:34:09;;;;;;;16.10;11.38;;;5.20;99.90;;;;;;5053596;28;20021;-71
2020/12/17 09:36:40;;;;;;;15.25;11.02;;;5.20;99.90;;;;;;5054377;28;20096;-72
2020/12/17 09:39:09;;;;;;;16.05;11.40;;;5.50;99.90;;;;;;5053792;28;20029;-71
2020/12/17 09:41:35;;;;;;;16.95;11.75;;;5.80;99.90;;;;;;5053364;28;20013;-72
2020/12/17 09:44:01;;;;;;;15.00;11.52;;;5.90;99.90;;;;;;5053184;28;20078;-71
2020/12/17 09:46:44;;;;;;;14.63;10.98;;;6.60;99.90;;;;;;5054475;28;20506;-71
2020/12/17 09:49:22;;;;;;;18.70;11.25;;;8.30;99.90;;;;;;5054101;28;20056;-72
2020/12/17 09:52:00;;;;;;;13.25;9.00;;;11.30;99.90;;;;;;5052912;28;20032;-71
2020/12/17 09:54:26;;;;;;;11.30;8.40;;;12.80;99.90;;;;;;5052376;28;20029;-72
2020/12/17 09:57:12;;;;;;;10.05;7.43;;;13.80;99.90;;;;;;5052554;28;20386;-71
2020/12/17 09:59:39;;;;;;;8.50;7.50;;;15.90;97.70;;;;;;5051402;28;20070;-72
2020/12/17 10:02:06;;;;;;;9.23;7.82;;;16.30;97.30;;;;;;5052435;28;20032;-72
2020/12/17 10:04:33;;;;;;;10.38;7.13;;;17.10;94.40;;;;;;5051956;28;20021;-72
2020/12/17 10:06:59;;;;;;;7.93;7.13;;;17.30;94.10;;;;;;5052212;28;20510;-71
2020/12/17 10:09:26;;;;;;;9.90;7.03;;;17.40;92.70;;;;;;5051087;28;20120;-72
2020/12/17 10:11:53;;;;;;;8.98;7.00;;;17.00;93.10;;;;;;5052180;28;20101;-71
2020/12/17 10:14:20;;;;;;;8.18;7.32;;;17.50;91.50;;;;;;5051823;28;20078;-70
2020/12/17 10:16:46;;;;;;;8.65;7.47;;;16.20;93.40;;;;;;5051749;28;20017;-70
2020/12/17 10:19:13;;;;;;;8.25;7.45;;;14.80;95.50;;;;;;5051740;28;20024;-69
2020/12/17 10:21:39;;;;;;;12.52;8.30;;;13.90;97.40;;;;;;5051989;28;20021;-71
2020/12/17 10:24:05;;;;;;;11.18;8.25;;;12.80;99.20;;;;;;5050907;28;20040;-71
2020/12/17 10:26:32;;;;;;;9.80;8.45;;;12.70;99.90;;;;;;5051613;28;20097;-70
2020/12/17 10:28:59;;;;;;;10.38;7.90;;;14.40;98.00;;;;;;5050706;28;20429;-70
2020/12/17 10:31:26;;;;;;;10.57;7.88;;;15.00;95.30;;;;;;5049888;28;20025;-72
2020/12/17 10:33:51;;;;;;;8.07;7.25;;;15.10;96.30;;;;;;5049655;28;20036;-73
2020/12/17 10:36:17;;;;;;;9.38;7.43;;;15.50;94.10;;;;;;5050696;28;20021;-73
2020/12/17 10:38:43;;;;;;;7.35;6.65;;;17.00;93.50;;;;;;5049109;28;20047;-71
2020/12/17 10:41:09;;;;;;;9.45;6.93;;;18.30;90.70;;;;;;5048757;28;20025;-72
2020/12/17 10:43:34;;;;;;;7.57;6.75;;;18.60;89.40;;;;;;5049611;28;20025;-71
2020/12/17 10:46:00;;;;;;;7.00;6.30;;;20.00;87.00;;;;;;5050171;28;20094;-71
2020/12/17 10:48:26;;;;;;;7.03;6.32;;;20.10;82.70;;;;;;5050133;28;20090;-70
2020/12/17 10:50:51;;;;;;;8.75;6.32;;;18.90;84.20;;;;;;5050533;28;20017;-72
2020/12/17 10:53:17;;;;;;;9.27;7.07;;;18.00;87.90;;;;;;5042373;28;20025;-72
2020/12/17 10:55:43;;;;;;;8.65;6.40;;;18.50;86.40;;;;;;5050382;28;20143;-73
2020/12/17 10:58:09;;;;;;;7.00;6.13;;;17.20;89.00;;;;;;5050975;28;20108;-74
2020/12/17 11:00:35;;;;;;;11.82;6.50;;;15.20;92.10;;;;;;5051064;28;20510;-72
2020/12/17 11:03:01;;;;;;;7.18;6.40;;;15.30;93.30;;;;;;5045047;28;20029;-73
2020/12/17 11:05:27;;;;;;;11.48;7.22;;;15.60;91.80;;;;;;5050259;28;20017;-73
2020/12/17 11:07:52;;;;;;;9.75;7.28;;;14.90;93.60;;;;;;5046873;28;20371;-71
2020/12/17 11:10:18;;;;;;;7.93;6.47;;;13.90;95.30;;;;;;5047020;28;20024;-72
2020/12/17 11:12:44;;;;;;;7.93;6.60;;;13.60;96.00;;;;;;5048176;28;20032;-73
2020/12/17 11:15:10;;;;;;;8.93;7.18;;;13.60;96.20;;;;;;5050317;28;20041;-73
2020/12/17 11:17:36;;;;;;;10.05;7.72;;;12.90;97.20;;;;;;5051237;28;20021;-72
2020/12/17 11:20:02;;;;;;;10.68;7.75;;;12.10;98.90;;;;;;5051088;28;20506;-73
2020/12/17 11:22:29;;;;;;;11.27;7.70;;;11.10;99.90;;;;;;5051053;28;20021;-74
2020/12/17 11:24:55;;;;;;;10.73;7.63;;;10.40;99.90;;;;;;5050198;28;20032;-73
2020/12/17 11:27:20;;;;;;;12.63;8.90;;;9.80;99.90;;;;;;5050406;28;20021;-72
2020/12/17 11:29:46;;;;;;;9.90;8.23;;;9.40;99.90;;;;;;5050465;28;20071;-72
2020/12/17 11:32:11;;;;;;;11.55;8.32;;;9.00;99.90;;;;;;5051142;28;20052;-73
2020/12/17 11:34:37;;;;;;;11.73;8.32;;;8.80;99.90;;;;;;5050083;28;20067;-73
2020/12/17 11:37:03;;;;;;;12.07;8.73;;;8.60;99.90;;;;;;5043539;22;20052;-73
2020/12/17 11:39:29;;;;;;;14.48;8.23;;;8.60;99.90;;;;;;5049484;28;20032;-73
2020/12/17 11:41:54;;;;;;;14.63;9.30;;;8.50;99.90;;;;;;5042686;28;20521;-74
2020/12/17 11:44:20;;;;;;;12.98;8.60;;;8.60;99.90;;;;;;5041541;28;20059;-74
2020/12/17 11:46:46;;;;;;;14.43;9.15;;;8.70;99.90;;;;;;5012467;28;20022;-73
2020/12/17 11:49:12;;;;;;;11.73;9.02;;;8.60;99.90;;;;;;5014835;28;20034;-75
2020/12/17 11:51:38;;;;;;;15.60;10.32;;;8.60;99.90;;;;;;5014215;28;20018;-73
2020/12/17 11:54:03;;;;;;;16.30;9.45;;;8.80;99.90;;;;;;5013537;28;20053;-74
2020/12/17 11:56:30;;;;;;;11.98;9.75;;;8.90;99.90;;;;;;5014462;28;20048;-74
2020/12/17 11:58:57;;;;;;;14.38;9.00;;;9.10;99.90;;;;;;5014605;28;20126;-74
2020/12/17 12:01:29;;;;;;;11.15;8.75;;;9.10;99.90;;;;;;5014506;28;20026;-75
2020/12/17 12:03:54;;;;;;;;;;;9.30;99.90;;;;;;5014241;28;20049;-76
2020/12/17 12:06:20;;;;;;;10.70;8.25;;;9.30;99.90;;;;;;5027811;28;19940;-75
2020/12/17 12:08:46;;;;;;;11.95;8.65;;;9.30;99.90;;;;;;5034160;28;20029;-76
2020/12/17 12:11:11;;;;;;;10.50;8.20;;;9.20;99.90;;;;;;5033851;28;20030;-73
2020/12/17 12:13:37;;;;;;;13.35;9.18;;;9.30;99.90;;;;;;5033311;28;20037;-75
2020/12/17 12:16:03;;;;;;;14.93;9.98;;;9.30;99.90;;;;;;5034186;28;20402;-76
2020/12/17 12:18:28;;;;;;;10.77;8.48;;;9.40;99.90;;;;;;5033433;28;20022;-76
2020/12/17 12:20:54;;;;;;;20.23;8.75;;;9.50;99.90;;;;;;5034311;28;20083;-74
2020/12/17 12:23:20;;;;;;;14.27;9.13;;;9.60;99.90;;;;;;5033600;28;20056;-74
2020/12/17 12:25:45;;;;;;;17.50;10.77;;;9.80;99.90;;;;;;5034434;28;20364;-73
2020/12/17 12:28:11;;;;;;;12.07;8.48;;;9.90;99.90;;;;;;5034354;28;20025;-76
2020/12/17 12:30:37;;;;;;;13.20;8.50;;;10.00;99.90;;;;;;5033883;28;20029;-73
2020/12/17 12:33:03;;;;;;;12.35;8.35;;;9.90;99.90;;;;;;5033400;28;20018;-74
2020/12/17 12:35:28;;;;;;;10.95;8.20;;;9.80;99.90;;;;;;5033963;28;20018;-72
2020/12/17 12:37:54;;;;;;;10.10;8.43;;;9.70;99.90;;;;;;5032902;28;20025;-75
2020/12/17 12:40:20;;;;;;;10.55;8.02;;;9.50;99.90;;;;;;5033590;28;20557;-74